createdAt,value
2019-05-06T00:00:14.273Z,20.00
2019-05-06T00:13:21.443Z,20.10
2019-05-06T00:26:28.636Z,20.10
2019-05-06T00:39:35.745Z,20.10
2019-05-06T00:52:59.173Z,20.10
2019-05-06T01:06:22.000Z,20.10
2019-05-06T01:19:45.802Z,20.10
2019-05-06T01:46:09.239Z,20.20
2019-05-06T02:12:24.417Z,20.20
2019-05-06T02:25:29.294Z,20.10
2019-05-06T02:38:46.005Z,20.10
2019-05-06T02:51:44.220Z,20.10
2019-05-06T03:04:52.911Z,20.10
2019-05-06T03:17:58.022Z,20.20
2019-05-06T03:31:25.686Z,20.20
2019-05-06T03:57:46.274Z,20.20
2019-05-06T04:23:59.173Z,20.20
2019-05-06T04:37:06.285Z,20.20
2019-05-06T04:50:13.531Z,20.20
2019-05-06T05:03:22.636Z,20.20
2019-05-06T05:16:27.876Z,20.10
2019-05-06T05:42:37.736Z,20.10
2019-05-06T05:55:44.897Z,20.10
2019-05-06T06:08:52.293Z,19.90
2019-05-06T06:21:59.242Z,19.90
2019-05-06T06:35:10.514Z,20.00
2019-05-06T06:48:13.654Z,20.00
2019-05-06T07:01:37.599Z,20.00
2019-05-06T07:15:02.178Z,20.10
2019-05-06T07:28:23.236Z,19.90
2019-05-06T07:41:46.291Z,19.90
2019-05-06T07:55:08.923Z,19.90
2019-05-06T08:21:33.382Z,20.00
2019-05-06T08:47:46.148Z,20.10
2019-05-06T09:00:55.536Z,20.00
2019-05-06T09:14:03.174Z,20.00
2019-05-06T09:40:12.694Z,20.20
2019-05-06T09:53:19.034Z,20.20
2019-05-06T10:06:26.132Z,20.20
2019-05-06T10:19:33.301Z,20.10
2019-05-06T10:32:42.677Z,20.10
2019-05-06T10:45:47.698Z,20.10
2019-05-06T10:59:12.936Z,20.10
2019-05-06T11:12:34.567Z,20.10
2019-05-06T11:25:57.349Z,20.10
2019-05-06T11:39:20.179Z,20.10
2019-05-06T11:52:43.350Z,20.20
2019-05-06T12:06:05.764Z,20.10
2019-05-06T12:19:28.545Z,20.10
2019-05-06T12:32:52.683Z,20.10
2019-05-06T12:46:14.212Z,20.10
2019-05-06T13:12:38.638Z,20.10
2019-05-06T13:25:45.902Z,20.30
2019-05-06T13:39:01.396Z,20.40
2019-05-06T13:52:01.025Z,20.40
2019-05-06T14:05:07.480Z,20.50
2019-05-06T14:18:14.705Z,20.50
2019-05-06T14:31:38.457Z,20.50
2019-05-06T14:45:01.280Z,20.50
2019-05-06T14:58:24.091Z,20.40
2019-05-06T15:11:46.884Z,20.50
2019-05-06T15:25:09.808Z,20.50
2019-05-06T15:38:32.525Z,20.40
2019-05-06T15:51:55.422Z,20.40
2019-05-06T16:05:19.624Z,20.40
2019-05-06T16:18:23.332Z,20.40
2019-05-06T16:44:32.652Z,20.40
2019-05-06T16:57:39.853Z,20.40
2019-05-06T17:10:47.018Z,20.40
2019-05-06T17:23:54.216Z,20.40
2019-05-06T17:37:02.952Z,20.30
2019-05-06T17:50:08.592Z,20.30
2019-05-06T18:03:32.707Z,20.20
2019-05-06T18:16:55.264Z,20.20
2019-05-06T18:30:23.173Z,20.20
2019-05-06T18:56:43.201Z,19.90
2019-05-06T19:09:52.264Z,19.90
2019-05-06T19:22:57.761Z,19.90
2019-05-06T19:36:05.001Z,19.90
2019-05-06T19:49:12.212Z,19.90
2019-05-06T20:02:35.902Z,19.90
2019-05-06T20:15:58.725Z,19.80
2019-05-06T20:29:23.249Z,19.80
2019-05-06T20:42:44.341Z,19.80
2019-05-06T20:56:07.435Z,19.70
2019-05-06T21:09:31.984Z,19.80
2019-05-06T21:22:52.890Z,19.90
2019-05-06T21:36:15.570Z,19.90
2019-05-06T21:49:38.378Z,19.90
2019-05-06T22:03:02.423Z,19.90
2019-05-06T22:16:24.042Z,19.90
2019-05-06T22:29:46.848Z,19.90
2019-05-06T22:43:09.640Z,19.90
2019-05-06T22:56:32.721Z,19.90
2019-05-06T23:36:57.341Z,20.00
2019-05-06T23:50:20.117Z,20.00
